Time,TemperatureF,DewpointF,PressureIn,WindDirection,WindDirectionDegrees,WindSpeedMPH,WindSpeedGustMPH,Humidity,HourlyPrecipIn,Conditions,Clouds,dailyrainin,SolarRadiationWatts/m^2,SoftwareType,DateUTC
2013-08-30 00:01:00,80.9,73.0,29.96,SSW,195,0.0,4.0,77,0.00,,,0.00,0,weatherlink.com 1.10,2013-08-30 04:01:00,
2013-08-30 00:16:00,80.6,73.0,29.96,South,187,0.0,4.0,78,0.00,,,0.00,0,weatherlink.com 1.10,2013-08-30 04:16:00,
2013-08-30 00:31:00,80.5,73.0,29.96,South,169,0.0,4.0,79,0.00,,,0.00,0,weatherlink.com 1.10,2013-08-30 04:31:00,
2013-08-30 00:46:00,80.3,73.0,29.97,South,169,0.0,3.0,79,0.00,,,0.00,0,weatherlink.com 1.10,2013-08-30 04:46:00,
2013-08-30 01:01:00,80.2,73.0,29.96,SSE,166,0.0,1.0,79,0.00,,,0.00,0,weatherlink.com 1.10,2013-08-30 05:01:00,
2013-08-30 01:16:00,80.0,73.0,29.96,SSE,165,0.0,1.0,80,0.00,,,0.00,0,weatherlink.com 1.10,2013-08-30 05:16:00,
2013-08-30 01:31:00,79.8,73.0,29.96,SSE,166,0.0,1.0,80,0.00,,,0.00,0,weatherlink.com 1.10,2013-08-30 05:31:00,
2013-08-30 01:46:00,79.5,73.0,29.96,SSE,165,0.0,1.0,81,0.00,,,0.00,0,weatherlink.com 1.10,2013-08-30 05:46:00,
2013-08-30 02:01:00,79.3,73.0,29.95,SSE,165,0.0,1.0,82,0.00,,,0.00,0,weatherlink.com 1.10,2013-08-30 06:01:00,
2013-08-30 02:16:00,79.1,74.0,29.95,SSE,166,0.0,0.0,83,0.00,,,0.00,0,weatherlink.com 1.10,2013-08-30 06:16:00,
2013-08-30 02:31:00,78.9,73.0,29.94,SSE,165,0.0,1.0,83,0.00,,,0.00,0,weatherlink.com 1.10,2013-08-30 06:31:00,
2013-08-30 02:46:00,78.9,73.0,29.94,SSE,166,2.0,3.0,83,0.00,,,0.00,0,weatherlink.com 1.10,2013-08-30 06:46:00,
2013-08-30 03:01:00,78.8,73.0,29.93,SSE,166,0.0,0.0,83,0.00,,,0.00,0,weatherlink.com 1.10,2013-08-30 07:01:00,
2013-08-30 03:16:00,78.7,73.0,29.93,SSE,166,0.0,1.0,83,0.00,,,0.00,0,weatherlink.com 1.10,2013-08-30 07:16:00,
2013-08-30 03:31:00,78.7,74.0,29.93,SSE,166,0.0,1.0,84,0.00,,,0.00,0,weatherlink.com 1.10,2013-08-30 07:31:00,
2013-08-30 03:46:00,78.7,74.0,29.92,SSE,166,0.0,1.0,84,0.00,,,0.00,0,weatherlink.com 1.10,2013-08-30 07:46:00,
2013-08-30 04:01:00,78.7,74.0,29.92,South,176,0.0,1.0,84,0.00,,,0.00,0,weatherlink.com 1.10,2013-08-30 08:01:00,
2013-08-30 04:16:00,78.7,74.0,29.92,South,183,0.0,1.0,84,0.00,,,0.00,0,weatherlink.com 1.10,2013-08-30 08:16:00,
2013-08-30 04:31:00,78.4,74.0,29.91,South,183,0.0,1.0,85,0.00,,,0.00,0,weatherlink.com 1.10,2013-08-30 08:31:00,
2013-08-30 04:46:00,78.2,74.0,29.91,South,183,0.0,0.0,86,0.00,,,0.00,0,weatherlink.com 1.10,2013-08-30 08:46:00,
2013-08-30 05:01:00,77.8,73.0,29.91,South,183,0.0,0.0,86,0.00,,,0.00,0,weatherlink.com 1.10,2013-08-30 09:01:00,
2013-08-30 05:16:00,77.5,73.0,29.91,South,183,0.0,0.0,87,0.00,,,0.00,0,weatherlink.com 1.10,2013-08-30 09:16:00,
2013-08-30 05:31:00,77.3,73.0,29.91,South,183,0.0,1.0,87,0.00,,,0.00,0,weatherlink.com 1.10,2013-08-30 09:31:00,
2013-08-30 05:46:00,77.1,73.0,29.91,South,183,0.0,1.0,87,0.00,,,0.00,0,weatherlink.com 1.10,2013-08-30 09:46:00,
2013-08-30 06:01:00,76.7,73.0,29.91,South,183,0.0,0.0,87,0.00,,,0.00,0,weatherlink.com 1.10,2013-08-30 10:01:00,
2013-08-30 06:16:00,76.5,72.0,29.91,South,183,0.0,0.0,87,0.00,,,0.00,0,weatherlink.com 1.10,2013-08-30 10:16:00,
2013-08-30 06:31:00,76.3,73.0,29.91,South,184,0.0,0.0,88,0.00,,,0.00,0,weatherlink.com 1.10,2013-08-30 10:31:00,
2013-08-30 06:46:00,76.3,73.0,29.93,South,183,0.0,1.0,88,0.00,,,0.00,0,weatherlink.com 1.10,2013-08-30 10:46:00,
2013-08-30 07:01:00,76.3,73.0,29.93,South,184,0.0,0.0,88,0.00,,,0.00,0,weatherlink.com 1.10,2013-08-30 11:01:00,
2013-08-30 07:16:00,76.1,72.0,29.93,South,183,0.0,0.0,88,0.00,,,0.00,12,weatherlink.com 1.10,2013-08-30 11:16:00,
2013-08-30 07:31:00,75.9,73.0,29.94,South,183,0.0,0.0,89,0.00,,,0.00,25,weatherlink.com 1.10,2013-08-30 11:31:00,
2013-08-30 07:46:00,75.9,73.0,29.94,South,183,0.0,0.0,89,0.00,,,0.00,32,weatherlink.com 1.10,2013-08-30 11:46:00,
2013-08-30 08:02:00,76.3,73.0,29.95,South,184,0.0,0.0,89,0.00,,,0.00,107,weatherlink.com 1.10,2013-08-30 12:02:00,
2013-08-30 08:17:00,77.2,73.0,29.95,South,184,0.0,0.0,87,0.00,,,0.00,162,weatherlink.com 1.10,2013-08-30 12:17:00,
2013-08-30 08:32:00,78.9,74.0,29.95,WNW,296,0.0,3.0,85,0.00,,,0.00,216,weatherlink.com 1.10,2013-08-30 12:32:00,
2013-08-30 08:47:00,80.4,75.0,29.95,WNW,292,0.0,1.0,82,0.00,,,0.00,269,weatherlink.com 1.10,2013-08-30 12:47:00,
2013-08-30 09:02:00,81.4,75.0,29.95,WNW,291,0.0,1.0,80,0.00,,,0.00,320,weatherlink.com 1.10,2013-08-30 13:02:00,
2013-08-30 09:17:00,82.5,75.0,29.96,WNW,290,0.0,1.0,79,0.00,,,0.00,374,weatherlink.com 1.10,2013-08-30 13:17:00,
2013-08-30 09:32:00,83.5,76.0,29.96,WNW,294,0.0,2.0,77,0.00,,,0.00,431,weatherlink.com 1.10,2013-08-30 13:32:00,
2013-08-30 09:47:00,84.7,76.0,29.96,West,261,0.0,3.0,75,0.00,,,0.00,504,weatherlink.com 1.10,2013-08-30 13:47:00,
2013-08-30 10:02:00,85.0,76.0,29.96,NW,317,0.0,5.0,74,0.00,,,0.00,534,weatherlink.com 1.10,2013-08-30 14:02:00,
2013-08-30 10:17:00,85.7,76.0,29.96,NNE,23,0.0,4.0,73,0.00,,,0.00,584,weatherlink.com 1.10,2013-08-30 14:17:00,
2013-08-30 10:32:00,86.3,75.0,29.96,NW,316,0.0,4.0,70,0.00,,,0.00,647,weatherlink.com 1.10,2013-08-30 14:32:00,
2013-08-30 10:47:00,87.1,75.0,29.96,SW,221,0.0,4.0,68,0.00,,,0.00,707,weatherlink.com 1.10,2013-08-30 14:47:00,
2013-08-30 11:02:00,87.1,75.0,29.96,WSW,242,0.0,5.0,68,0.00,,,0.00,206,weatherlink.com 1.10,2013-08-30 15:02:00,
2013-08-30 11:17:00,87.9,75.0,29.96,WNW,302,0.0,4.0,65,0.00,,,0.00,749,weatherlink.com 1.10,2013-08-30 15:17:00,
2013-08-30 11:32:00,89.5,75.0,29.96,NW,315,0.0,4.0,63,0.00,,,0.00,805,weatherlink.com 1.10,2013-08-30 15:32:00,
2013-08-30 11:47:00,88.8,75.0,29.96,West,267,0.0,2.0,63,0.00,,,0.00,837,weatherlink.com 1.10,2013-08-30 15:47:00,
2013-08-30 12:02:00,89.8,75.0,29.95,NW,313,0.0,2.0,62,0.00,,,0.00,853,weatherlink.com 1.10,2013-08-30 16:02:00,
2013-08-30 12:18:00,90.4,75.0,29.95,North,360,2.0,4.0,60,0.00,,,0.00,947,weatherlink.com 1.10,2013-08-30 16:18:00,
2013-08-30 12:33:00,89.6,74.0,29.95,North,355,0.0,1.0,61,0.00,,,0.00,272,weatherlink.com 1.10,2013-08-30 16:33:00,
2013-08-30 12:48:00,89.8,73.0,29.95,North,355,0.0,1.0,58,0.00,,,0.00,526,weatherlink.com 1.10,2013-08-30 16:48:00,
2013-08-30 13:03:00,90.4,75.0,29.94,ESE,117,0.0,4.0,60,0.00,,,0.00,206,weatherlink.com 1.10,2013-08-30 17:03:00,
2013-08-30 13:18:00,91.1,73.0,29.93,South,172,3.0,4.0,56,0.00,,,0.00,1056,weatherlink.com 1.10,2013-08-30 17:18:00,
2013-08-30 13:33:00,91.8,72.0,29.92,SSE,165,0.0,5.0,53,0.00,,,0.00,1039,weatherlink.com 1.10,2013-08-30 17:33:00,
2013-08-30 13:48:00,92.5,72.0,29.91,South,169,0.0,6.0,52,0.00,,,0.00,1004,weatherlink.com 1.10,2013-08-30 17:48:00,
2013-08-30 14:03:00,92.9,70.0,29.90,South,186,0.0,5.0,48,0.00,,,0.00,965,weatherlink.com 1.10,2013-08-30 18:03:00,
2013-08-30 14:18:00,94.2,68.0,29.90,SW,236,0.0,5.0,43,0.00,,,0.00,1014,weatherlink.com 1.10,2013-08-30 18:18:00,
2013-08-30 14:33:00,94.7,70.0,29.90,SW,218,2.0,6.0,45,0.00,,,0.00,988,weatherlink.com 1.10,2013-08-30 18:33:00,
2013-08-30 14:48:00,94.9,70.0,29.90,SE,136,4.0,5.0,45,0.00,,,0.00,991,weatherlink.com 1.10,2013-08-30 18:48:00,
2013-08-30 15:03:00,93.3,71.0,29.89,South,174,1.0,7.0,49,0.00,,,0.00,710,weatherlink.com 1.10,2013-08-30 19:03:00,
2013-08-30 15:18:00,92.6,72.0,29.89,SSW,200,0.0,5.0,51,0.00,,,0.00,309,weatherlink.com 1.10,2013-08-30 19:18:00,
2013-08-30 15:33:00,93.6,72.0,29.88,South,181,3.0,7.0,50,0.00,,,0.00,954,weatherlink.com 1.10,2013-08-30 19:33:00,
2013-08-30 15:48:00,94.4,73.0,29.87,South,190,3.0,8.0,50,0.00,,,0.00,900,weatherlink.com 1.10,2013-08-30 19:48:00,
2013-08-30 16:03:00,93.6,72.0,29.86,SSE,165,1.0,7.0,49,0.00,,,0.00,872,weatherlink.com 1.10,2013-08-30 20:03:00,
2013-08-30 16:18:00,94.4,71.0,29.86,WSW,240,2.0,6.0,47,0.00,,,0.00,823,weatherlink.com 1.10,2013-08-30 20:18:00,
2013-08-30 16:33:00,94.0,71.0,29.86,WSW,244,3.0,7.0,47,0.00,,,0.00,682,weatherlink.com 1.10,2013-08-30 20:33:00,
2013-08-30 16:48:00,92.6,75.0,29.86,WSW,238,1.0,8.0,57,0.05,,,0.05,105,weatherlink.com 1.10,2013-08-30 20:48:00,
2013-08-30 17:03:00,85.1,77.0,29.86,WSW,241,0.0,1.0,76,0.11,,,0.11,93,weatherlink.com 1.10,2013-08-30 21:03:00,
2013-08-30 17:18:00,83.0,77.0,29.87,East,87,3.0,4.0,81,0.12,,,0.12,76,weatherlink.com 1.10,2013-08-30 21:18:00,
2013-08-30 17:33:00,79.6,74.0,29.87,SE,138,3.0,6.0,82,0.22,,,0.22,47,weatherlink.com 1.10,2013-08-30 21:33:00,
2013-08-30 17:48:00,79.8,75.0,29.87,SE,139,0.0,5.0,85,0.22,,,0.27,46,weatherlink.com 1.10,2013-08-30 21:48:00,
2013-08-30 18:03:00,80.5,75.0,29.88,South,171,4.0,7.0,84,0.16,,,0.27,26,weatherlink.com 1.10,2013-08-30 22:03:00,
2013-08-30 18:18:00,80.7,74.0,29.89,South,173,5.0,14.0,79,0.15,,,0.27,25,weatherlink.com 1.10,2013-08-30 22:18:00,
2013-08-30 18:33:00,80.4,73.0,29.89,South,176,13.0,18.0,78,0.05,,,0.27,18,weatherlink.com 1.10,2013-08-30 22:33:00,
2013-08-30 18:48:00,80.0,73.0,29.90,SSE,161,2.0,11.0,80,0.00,,,0.27,11,weatherlink.com 1.10,2013-08-30 22:48:00,
2013-08-30 19:03:00,80.0,73.0,29.89,South,173,0.0,7.0,80,0.00,,,0.27,11,weatherlink.com 1.10,2013-08-30 23:03:00,
2013-08-30 19:18:00,80.0,73.0,29.89,SSE,160,0.0,4.0,80,0.00,,,0.27,5,weatherlink.com 1.10,2013-08-30 23:18:00,
2013-08-30 19:33:00,80.0,74.0,29.89,SW,236,1.0,4.0,81,0.00,,,0.27,5,weatherlink.com 1.10,2013-08-30 23:33:00,
2013-08-30 19:48:00,80.0,74.0,29.89,SW,236,1.0,2.0,81,0.00,,,0.27,0,weatherlink.com 1.10,2013-08-30 23:48:00,
2013-08-30 20:03:00,79.9,74.0,29.89,WSW,240,0.0,4.0,81,0.00,,,0.27,0,weatherlink.com 1.10,2013-08-31 00:03:00,
2013-08-30 20:18:00,80.0,73.0,29.89,WSW,249,0.0,3.0,80,0.00,,,0.27,0,weatherlink.com 1.10,2013-08-31 00:18:00,
2013-08-30 20:33:00,79.8,72.0,29.89,WSW,252,0.0,2.0,78,0.00,,,0.27,0,weatherlink.com 1.10,2013-08-31 00:33:00,
2013-08-30 20:48:00,79.6,73.0,29.89,WSW,252,0.0,0.0,79,0.00,,,0.27,0,weatherlink.com 1.10,2013-08-31 00:48:00,
2013-08-30 21:03:00,79.2,73.0,29.90,WSW,252,0.0,1.0,80,0.00,,,0.27,0,weatherlink.com 1.10,2013-08-31 01:03:00,
2013-08-30 21:18:00,79.1,73.0,29.90,SW,232,0.0,2.0,81,0.00,,,0.27,0,weatherlink.com 1.10,2013-08-31 01:18:00,
2013-08-30 21:33:00,79.0,73.0,29.91,SW,231,0.0,1.0,81,0.00,,,0.27,0,weatherlink.com 1.10,2013-08-31 01:33:00,
2013-08-30 21:48:00,79.2,73.0,29.92,SSE,167,0.0,5.0,81,0.00,,,0.27,0,weatherlink.com 1.10,2013-08-31 01:48:00,
2013-08-30 22:03:00,79.1,73.0,29.92,SSE,167,0.0,1.0,81,0.00,,,0.27,0,weatherlink.com 1.10,2013-08-31 02:03:00,
2013-08-30 22:18:00,78.8,73.0,29.92,SSE,167,0.0,1.0,81,0.00,,,0.27,0,weatherlink.com 1.10,2013-08-31 02:18:00,
2013-08-30 22:33:00,78.6,73.0,29.92,SSE,166,0.0,0.0,82,0.00,,,0.27,0,weatherlink.com 1.10,2013-08-31 02:33:00,
2013-08-30 22:48:00,78.2,73.0,29.91,SSE,166,0.0,0.0,83,0.00,,,0.27,0,weatherlink.com 1.10,2013-08-31 02:48:00,
2013-08-30 23:03:00,77.6,73.0,29.91,SSE,167,0.0,0.0,84,0.00,,,0.27,0,weatherlink.com 1.10,2013-08-31 03:03:00,
2013-08-30 23:18:00,77.6,73.0,29.91,SSE,167,0.0,1.0,85,0.00,,,0.27,0,weatherlink.com 1.10,2013-08-31 03:18:00,
2013-08-30 23:33:00,77.5,73.0,29.90,SSE,165,0.0,0.0,85,0.00,,,0.27,0,weatherlink.com 1.10,2013-08-31 03:33:00,
2013-08-30 23:48:00,77.2,72.0,29.91,SSE,165,0.0,1.0,85,0.00,,,0.27,0,weatherlink.com 1.10,2013-08-31 03:48:00,